Time;durP1;ratioP1;P1;durP2;ratioP2;P2;SDS_P1;SDS_P2;PMS_P1;PMS_P2;Temp;Humidity;BMP_temperature;BMP_pressure;BME280_temperature;BME280_humidity;BME280_pressure;Samples;Min_cycle;Max_cycle;Signal;HPM_P1;HPM_P2
2022/08/23 00:02:25;;;;;;;11.07;6.05;;;;;;;;;;4991294;28;88888;-75
2022/08/23 00:04:52;;;;;;;17.75;5.95;;;;;;;;;;4992772;28;89332;-75
2022/08/23 00:07:33;;;;;;;19.48;5.70;;;;;;;;;;4986809;28;89802;-75
2022/08/23 00:10:04;;;;;;;12.23;6.18;;;;;;;;;;4981418;28;90084;-75
2022/08/23 00:12:30;;;;;;;12.75;6.15;;;;;;;;;;4975220;28;89747;-75
2022/08/23 00:14:56;;;;;;;17.65;6.38;;;;;;;;;;4973441;28;90879;-75
2022/08/23 00:17:23;;;;;;;10.40;5.35;;;;;;;;;;4984185;28;89540;-75
2022/08/23 00:19:59;;;;;;;12.32;5.65;;;;;;;;;;4991121;28;89749;-75
2022/08/23 00:22:26;;;;;;;10.05;5.28;;;;;;;;;;4992726;28;90068;-75
2022/08/23 00:24:52;;;;;;;12.57;5.53;;;;;;;;;;4988887;28;89121;-75
2022/08/23 00:27:18;;;;;;;9.68;5.70;;;;;;;;;;4991847;28;89878;-74
2022/08/23 00:29:47;;;;;;;10.60;5.97;;;;;;;;;;4993804;28;90080;-75
2022/08/23 00:32:18;;;;;;;13.07;5.75;;;;;;;;;;4993457;28;87840;-75
2022/08/23 00:34:44;;;;;;;11.52;6.40;;;;;;;;;;4991883;28;89720;-75
2022/08/23 00:37:11;;;;;;;13.13;6.65;;;;;;;;;;4992509;28;89241;-75
2022/08/23 00:39:39;;;;;;;14.27;7.55;;;;;;;;;;4984713;28;90361;-75
2022/08/23 00:48:07;;;;;;;13.43;6.95;;;;;;;;;;4968257;28;89886;-75
2022/08/23 00:50:38;;;;;;;15.75;6.63;;;;;;;;;;4957264;28;88959;-75
2022/08/23 00:53:12;;;;;;;8.52;6.32;;;;;;;;;;4969890;28;88447;-75
2022/08/23 00:55:39;;;;;;;12.18;6.75;;;;;;;;;;4969839;28;89528;-75
2022/08/23 00:58:06;;;;;;;16.33;7.18;;;;;;;;;;4972311;28;88971;-75
2022/08/23 01:00:33;;;;;;;15.40;6.93;;;;;;;;;;4968204;28;88939;-75
2022/08/23 01:03:00;;;;;;;15.00;6.78;;;;;;;;;;4969214;28;90707;-75
2022/08/23 01:05:31;;;;;;;12.00;7.03;;;;;;;;;;4959903;28;89562;-75
2022/08/23 01:07:58;;;;;;;10.90;7.07;;;;;;;;;;4968447;28;90454;-75
2022/08/23 01:10:28;;;;;;;12.07;6.82;;;;;;;;;;4968561;28;90018;-74
2022/08/23 01:13:30;;;;;;;16.65;7.70;;;;;;;;;;4969093;28;88930;-75
2022/08/23 01:15:59;;;;;;;15.83;7.07;;;;;;;;;;4929528;28;89873;-74
2022/08/23 01:18:27;;;;;;;13.15;6.82;;;;;;;;;;4921185;28;90251;-74
2022/08/23 01:20:53;;;;;;;12.75;6.38;;;;;;;;;;4928600;28;89460;-74
2022/08/23 01:23:23;;;;;;;16.35;6.68;;;;;;;;;;4949085;28;89505;-74
2022/08/23 01:25:49;;;;;;;16.35;6.93;;;;;;;;;;4950061;28;88890;-74
2022/08/23 01:28:17;;;;;;;16.90;6.68;;;;;;;;;;4949675;28;89711;-74
2022/08/23 01:30:45;;;;;;;9.02;6.40;;;;;;;;;;4946655;28;90867;-75
2022/08/23 01:33:11;;;;;;;13.30;7.60;;;;;;;;;;4947132;28;89231;-74
2022/08/23 01:35:42;;;;;;;10.95;6.38;;;;;;;;;;4947770;28;90371;-74
2022/08/23 01:38:09;;;;;;;15.73;7.10;;;;;;;;;;4949179;28;90440;-74
2022/08/23 01:40:36;;;;;;;11.70;6.78;;;;;;;;;;4950039;28;89190;-74
2022/08/23 01:43:03;;;;;;;11.77;7.00;;;;;;;;;;4948120;28;90087;-74
2022/08/23 01:45:30;;;;;;;11.38;6.43;;;;;;;;;;4945854;28;88910;-74
2022/08/23 01:47:57;;;;;;;15.82;7.00;;;;;;;;;;4914390;28;89678;-74
2022/08/23 01:50:23;;;;;;;10.63;6.90;;;;;;;;;;4967275;28;90268;-74
2022/08/23 01:52:50;;;;;;;15.52;6.85;;;;;;;;;;4990857;28;89110;-75
2022/08/23 01:55:16;;;;;;;14.63;7.30;;;;;;;;;;4991117;28;89854;-74
2022/08/23 01:57:44;;;;;;;10.65;6.90;;;;;;;;;;4992035;28;90059;-74
2022/08/23 02:00:15;;;;;;;11.43;6.97;;;;;;;;;;4971708;28;89801;-74
2022/08/23 02:02:42;;;;;;;11.05;6.32;;;;;;;;;;4974677;28;89941;-76
2022/08/23 02:05:08;;;;;;;13.63;6.78;;;;;;;;;;4972012;28;89005;-76
2022/08/23 02:07:34;;;;;;;13.30;6.63;;;;;;;;;;4992895;28;89610;-76
2022/08/23 02:10:01;;;;;;;13.27;6.97;;;;;;;;;;4989850;28;88842;-74
2022/08/23 02:12:28;;;;;;;13.38;6.95;;;;;;;;;;4991371;28;88811;-75
2022/08/23 02:14:55;;;;;;;18.80;7.45;;;;;;;;;;4991221;28;89192;-75
2022/08/23 02:17:21;;;;;;;13.00;7.78;;;;;;;;;;4990335;28;90284;-75
2022/08/23 02:19:48;;;;;;;11.73;7.43;;;;;;;;;;4983000;28;91322;-75
2022/08/23 02:22:14;;;;;;;12.15;6.60;;;;;;;;;;4975940;28;90747;-75
2022/08/23 02:24:43;;;;;;;12.63;6.55;;;;;;;;;;4993182;28;90184;-75
2022/08/23 02:27:09;;;;;;;11.55;7.05;;;;;;;;;;4989315;28;90287;-75
2022/08/23 02:29:36;;;;;;;12.40;6.75;;;;;;;;;;4986212;28;89949;-75
2022/08/23 02:32:04;;;;;;;13.80;7.28;;;;;;;;;;4987255;28;89465;-75
2022/08/23 02:34:31;;;;;;;13.13;7.65;;;;;;;;;;4971396;28;89523;-75
2022/08/23 02:36:58;;;;;;;12.75;7.72;;;;;;;;;;4987304;28;89352;-75
2022/08/23 02:39:24;;;;;;;11.27;7.80;;;;;;;;;;4983664;28;89257;-74
2022/08/23 02:41:51;;;;;;;13.52;8.60;;;;;;;;;;4976849;28;89672;-76
2022/08/23 02:44:18;;;;;;;10.95;7.55;;;;;;;;;;4990892;28;90542;-76
2022/08/23 02:46:45;;;;;;;12.93;8.10;;;;;;;;;;4994369;28;89357;-75
2022/08/23 02:49:11;;;;;;;12.32;7.53;;;;;;;;;;4982816;28;90224;-75
2022/08/23 02:51:38;;;;;;;15.32;7.28;;;;;;;;;;4979110;28;89253;-76
2022/08/23 02:54:05;;;;;;;17.52;7.05;;;;;;;;;;4987160;28;90183;-75
2022/08/23 02:56:31;;;;;;;13.63;7.03;;;;;;;;;;4984763;28;89988;-75
2022/08/23 02:58:58;;;;;;;13.82;6.75;;;;;;;;;;4989051;28;88748;-75
2022/08/23 03:01:29;;;;;;;13.35;7.15;;;;;;;;;;4983681;28;90027;-75
2022/08/23 03:03:56;;;;;;;19.85;7.50;;;;;;;;;;4977841;28;88805;-75
2022/08/23 03:06:22;;;;;;;13.02;6.30;;;;;;;;;;4990351;28;89021;-75
2022/08/23 03:08:51;;;;;;;19.02;7.57;;;;;;;;;;4990282;28;89977;-74
2022/08/23 03:11:22;;;;;;;11.15;6.95;;;;;;;;;;4991054;28;88729;-74
2022/08/23 03:13:49;;;;;;;11.48;6.53;;;;;;;;;;4990629;28;88516;-75
2022/08/23 03:16:16;;;;;;;20.80;7.07;;;;;;;;;;4983747;28;90045;-75
2022/08/23 03:18:43;;;;;;;14.98;8.13;;;;;;;;;;4985110;28;89442;-75
2022/08/23 03:21:09;;;;;;;16.10;8.85;;;;;;;;;;4990598;28;89775;-75
2022/08/23 03:23:36;;;;;;;11.50;7.90;;;;;;;;;;4988369;28;90378;-74
2022/08/23 03:26:03;;;;;;;11.98;8.77;;;;;;;;;;4974196;28;89050;-74
2022/08/23 03:28:29;;;;;;;17.20;9.05;;;;;;;;;;4993885;28;89198;-74
2022/08/23 03:30:56;;;;;;;17.33;8.98;;;;;;;;;;4995094;28;89872;-74
2022/08/23 03:33:22;;;;;;;12.95;8.65;;;;;;;;;;4991493;28;89899;-74
2022/08/23 03:35:49;;;;;;;12.73;8.80;;;;;;;;;;4992637;28;90091;-74
2022/08/23 03:38:16;;;;;;;12.80;7.75;;;;;;;;;;4993312;28;90662;-76
2022/08/23 03:40:43;;;;;;;21.83;8.35;;;;;;;;;;4991826;28;89635;-75
2022/08/23 03:43:09;;;;;;;13.80;7.70;;;;;;;;;;4973863;28;89648;-76
2022/08/23 03:45:36;;;;;;;12.50;8.45;;;;;;;;;;4988891;28;89004;-75
2022/08/23 03:48:02;;;;;;;14.57;8.02;;;;;;;;;;4986711;28;89146;-75
2022/08/23 03:50:29;;;;;;;11.05;8.23;;;;;;;;;;5005024;28;89057;-76
2022/08/23 03:52:55;;;;;;;15.32;7.95;;;;;;;;;;4985984;28;89170;-76
2022/08/23 03:55:21;;;;;;;18.17;8.15;;;;;;;;;;4991888;28;90191;-75
2022/08/23 03:57:48;;;;;;;16.00;8.02;;;;;;;;;;4986162;28;89375;-75
2022/08/23 04:00:15;;;;;;;11.40;7.78;;;;;;;;;;4975989;28;90417;-75
2022/08/23 04:02:46;;;;;;;12.20;8.10;;;;;;;;;;4983720;28;89835;-75
2022/08/23 04:05:12;;;;;;;17.63;7.97;;;;;;;;;;4974570;28;89621;-74
2022/08/23 04:07:38;;;;;;;14.70;7.68;;;;;;;;;;4974962;28;90299;-74
2022/08/23 04:10:06;;;;;;;15.02;8.23;;;;;;;;;;4974366;28;88982;-75
2022/08/23 04:12:33;;;;;;;12.68;7.88;;;;;;;;;;4990253;28;89085;-76
2022/08/23 04:14:59;;;;;;;18.33;8.40;;;;;;;;;;4982334;28;89111;-76
2022/08/23 04:17:27;;;;;;;12.05;7.53;;;;;;;;;;4988839;28;89056;-74
2022/08/23 04:19:58;;;;;;;15.43;7.90;;;;;;;;;;4991836;28;90058;-74
2022/08/23 04:22:24;;;;;;;15.20;7.97;;;;;;;;;;4983122;28;90582;-75
2022/08/23 04:24:50;;;;;;;13.13;8.27;;;;;;;;;;4985173;28;89076;-76
2022/08/23 04:27:17;;;;;;;13.52;7.47;;;;;;;;;;4981636;28;89678;-75
2022/08/23 04:29:43;;;;;;;13.32;7.68;;;;;;;;;;4992783;28;89888;-75
2022/08/23 04:32:10;;;;;;;13.80;8.00;;;;;;;;;;4989278;28;88871;-75
2022/08/23 04:34:41;;;;;;;14.73;7.93;;;;;;;;;;4990287;28;90350;-75
2022/08/23 04:37:11;;;;;;;13.23;8.18;;;;;;;;;;4985610;28;89132;-75
2022/08/23 04:42:22;;;;;;;13.82;8.35;;;;;;;;;;4973294;28;88942;-75
2022/08/23 04:44:49;;;;;;;19.17;8.70;;;;;;;;;;4980488;28;88794;-75
2022/08/23 19:20:06;;;;;;;10.38;4.72;;;;;;;;;;5073390;27;87501;-74
2022/08/23 19:22:33;;;;;;;9.88;5.35;;;;;;;;;;5067816;27;87671;-74
2022/08/23 19:24:59;;;;;;;16.25;6.32;;;;;;;;;;5052349;27;88474;-75
2022/08/23 19:27:25;;;;;;;11.98;5.80;;;;;;;;;;5069242;27;87351;-74
2022/08/23 19:29:52;;;;;;;11.90;6.15;;;;;;;;;;5065016;27;89131;-74
2022/08/23 19:32:18;;;;;;;12.15;6.40;;;;;;;;;;5055629;27;88064;-75
2022/08/23 19:34:46;;;;;;;15.95;6.47;;;;;;;;;;5065077;27;88419;-74
2022/08/23 19:37:12;;;;;;;14.55;6.38;;;;;;;;;;5066638;27;89084;-74
2022/08/23 19:39:48;;;;;;;11.45;6.82;;;;;;;;;;5066812;27;88682;-74
2022/08/23 19:42:14;;;;;;;14.50;6.68;;;;;;;;;;5065522;27;89355;-74
2022/08/23 19:44:41;;;;;;;12.52;6.78;;;;;;;;;;5054343;27;87598;-73
2022/08/23 19:47:07;;;;;;;16.23;6.88;;;;;;;;;;5059364;27;88650;-73
2022/08/23 19:49:38;;;;;;;18.13;7.85;;;;;;;;;;5067067;27;87512;-75
2022/08/23 19:52:06;;;;;;;12.98;7.70;;;;;;;;;;5065504;27;88233;-75
2022/08/23 19:54:33;;;;;;;18.88;7.55;;;;;;;;;;5059954;27;88967;-75
2022/08/23 19:56:59;;;;;;;15.65;8.18;;;;;;;;;;5055075;27;90006;-75
2022/08/23 19:59:30;;;;;;;15.32;8.20;;;;;;;;;;5067847;27;88538;-73
2022/08/23 20:01:57;;;;;;;19.33;8.70;;;;;;;;;;5059700;27;88437;-75
2022/08/23 20:04:25;;;;;;;15.70;7.63;;;;;;;;;;5049460;27;88322;-75
2022/08/23 20:06:52;;;;;;;14.60;8.38;;;;;;;;;;5066447;27;87958;-75
2022/08/23 20:09:19;;;;;;;16.25;8.05;;;;;;;;;;5068224;27;88170;-75
2022/08/23 20:11:45;;;;;;;12.65;7.93;;;;;;;;;;5057004;27;88577;-75
2022/08/23 20:14:12;;;;;;;15.57;7.70;;;;;;;;;;5064836;27;88647;-75
2022/08/23 20:16:38;;;;;;;20.33;8.52;;;;;;;;;;5067275;27;89191;-75
2022/08/23 20:19:07;;;;;;;19.92;8.70;;;;;;;;;;5054101;27;88369;-75
2022/08/23 20:21:34;;;;;;;12.25;7.60;;;;;;;;;;5044991;27;89104;-75
2022/08/23 20:24:00;;;;;;;15.18;7.32;;;;;;;;;;5044161;27;89087;-75
2022/08/23 20:26:27;;;;;;;18.02;8.40;;;;;;;;;;5047467;27;88705;-75
2022/08/23 20:28:54;;;;;;;20.48;8.90;;;;;;;;;;5037514;27;89086;-75
2022/08/23 20:31:27;;;;;;;17.60;7.32;;;;;;;;;;5029864;27;87641;-75
2022/08/23 20:33:53;;;;;;;23.17;7.75;;;;;;;;;;5033431;28;88686;-74
2022/08/23 20:36:20;;;;;;;23.38;8.02;;;;;;;;;;5032425;28;91327;-74
2022/08/23 20:38:46;;;;;;;18.23;7.18;;;;;;;;;;5028976;28;89256;-74
2022/08/23 20:41:12;;;;;;;14.27;7.30;;;;;;;;;;5031836;28;88370;-74
2022/08/23 20:43:45;;;;;;;14.40;7.65;;;;;;;;;;5017227;28;89505;-74
2022/08/23 20:46:11;;;;;;;13.82;9.05;;;;;;;;;;5016555;28;88588;-74
2022/08/23 20:48:38;;;;;;;17.10;8.45;;;;;;;;;;5016553;27;89056;-74
2022/08/23 20:51:05;;;;;;;15.27;8.40;;;;;;;;;;5032675;28;88562;-74
2022/08/23 20:53:31;;;;;;;19.73;8.50;;;;;;;;;;5027437;27;88559;-74
2022/08/23 20:55:58;;;;;;;16.38;8.52;;;;;;;;;;5018713;28;88590;-74
2022/08/23 20:58:24;;;;;;;18.77;8.65;;;;;;;;;;5014673;28;88267;-74
2022/08/23 21:00:51;;;;;;;15.25;8.23;;;;;;;;;;5022956;28;88311;-74
2022/08/23 21:03:17;;;;;;;19.33;8.70;;;;;;;;;;5028826;28;89452;-74
2022/08/23 21:05:44;;;;;;;16.17;8.65;;;;;;;;;;5026210;28;88689;-74
2022/08/23 21:08:13;;;;;;;19.15;10.00;;;;;;;;;;5023193;28;88547;-74
2022/08/23 21:10:40;;;;;;;15.45;9.05;;;;;;;;;;5022016;28;89599;-74
2022/08/23 21:13:10;;;;;;;18.23;10.18;;;;;;;;;;5031548;28;88938;-74
2022/08/23 21:15:36;;;;;;;15.18;8.27;;;;;;;;;;5032010;28;89722;-74
2022/08/23 21:18:03;;;;;;;18.85;8.88;;;;;;;;;;5030614;27;88237;-74
2022/08/23 21:20:30;;;;;;;22.98;8.23;;;;;;;;;;5013733;28;88000;-74
2022/08/23 21:22:56;;;;;;;13.20;7.60;;;;;;;;;;5018374;28;88901;-74
2022/08/23 21:25:23;;;;;;;13.63;7.70;;;;;;;;;;5021320;27;88398;-74
2022/08/23 21:27:49;;;;;;;22.65;7.90;;;;;;;;;;5011403;28;88453;-74
2022/08/23 21:30:15;;;;;;;17.70;7.63;;;;;;;;;;5032351;28;87861;-73
2022/08/23 21:32:42;;;;;;;16.05;7.70;;;;;;;;;;5029640;28;88325;-74
2022/08/23 21:35:08;;;;;;;16.92;7.28;;;;;;;;;;5032796;28;88081;-74
2022/08/23 21:37:34;;;;;;;11.85;6.82;;;;;;;;;;5033284;28;88536;-74
2022/08/23 21:40:01;;;;;;;19.73;7.35;;;;;;;;;;5022873;28;89143;-74
2022/08/23 21:42:29;;;;;;;18.35;7.32;;;;;;;;;;5011530;28;89221;-74
2022/08/23 21:44:55;;;;;;;11.43;7.40;;;;;;;;;;5024595;28;88695;-74
2022/08/23 21:47:21;;;;;;;11.88;7.72;;;;;;;;;;5028510;28;88347;-74
2022/08/23 21:49:48;;;;;;;15.45;8.25;;;;;;;;;;5028703;28;89158;-74
2022/08/23 21:52:14;;;;;;;12.00;7.55;;;;;;;;;;5003373;28;88443;-74
2022/08/23 21:54:40;;;;;;;13.38;8.10;;;;;;;;;;5016090;28;88859;-74
2022/08/23 21:57:09;;;;;;;14.48;8.52;;;;;;;;;;5022401;28;88444;-74
2022/08/23 21:59:35;;;;;;;21.65;8.65;;;;;;;;;;5024447;28;88279;-74
2022/08/23 22:02:02;;;;;;;14.80;8.43;;;;;;;;;;5027005;28;89088;-73
2022/08/23 22:04:28;;;;;;;14.10;8.20;;;;;;;;;;5032819;28;88550;-74
2022/08/23 22:06:55;;;;;;;17.48;8.23;;;;;;;;;;5025532;28;88596;-74
2022/08/23 22:09:26;;;;;;;12.93;7.53;;;;;;;;;;5030063;28;89298;-74
2022/08/23 22:11:57;;;;;;;13.13;8.30;;;;;;;;;;5034840;28;87292;-74
2022/08/23 22:14:24;;;;;;;18.13;7.70;;;;;;;;;;5032626;28;87881;-74
2022/08/23 22:16:56;;;;;;;13.13;6.93;;;;;;;;;;5025685;28;88328;-74
2022/08/23 22:19:23;;;;;;;16.00;7.00;;;;;;;;;;5020248;27;88141;-75
2022/08/23 22:21:51;;;;;;;15.32;7.20;;;;;;;;;;5026276;28;88699;-75
2022/08/23 22:24:17;;;;;;;22.23;6.95;;;;;;;;;;5030634;28;88501;-75
2022/08/23 22:26:48;;;;;;;9.02;6.72;;;;;;;;;;5032867;27;88476;-75
2022/08/23 22:29:15;;;;;;;11.10;7.10;;;;;;;;;;5030325;27;88876;-74
2022/08/23 22:31:41;;;;;;;13.90;6.30;;;;;;;;;;5028646;28;88120;-75
2022/08/23 22:34:08;;;;;;;13.05;6.93;;;;;;;;;;5031897;28;88219;-74
2022/08/23 22:36:35;;;;;;;10.15;6.38;;;;;;;;;;5033279;28;88394;-75
2022/08/23 22:39:02;;;;;;;11.20;7.57;;;;;;;;;;5033124;28;88660;-75
2022/08/23 22:41:29;;;;;;;16.02;7.20;;;;;;;;;;5028027;28;89085;-75
2022/08/23 22:43:57;;;;;;;12.68;7.93;;;;;;;;;;5031729;28;88131;-75
2022/08/23 22:46:24;;;;;;;10.90;7.10;;;;;;;;;;5032816;28;87442;-75
2022/08/23 22:48:52;;;;;;;10.40;7.65;;;;;;;;;;5030897;28;89182;-75
2022/08/23 22:51:26;;;;;;;12.73;7.53;;;;;;;;;;5032944;28;88153;-74
2022/08/23 22:53:55;;;;;;;13.82;7.80;;;;;;;;;;5025036;27;88610;-74
2022/08/23 22:56:26;;;;;;;11.38;7.43;;;;;;;;;;5028072;28;89089;-74
2022/08/23 22:58:53;;;;;;;13.82;7.35;;;;;;;;;;5032459;28;88687;-74
2022/08/23 23:01:25;;;;;;;10.10;6.35;;;;;;;;;;5032742;28;89080;-75
2022/08/23 23:03:54;;;;;;;13.57;7.25;;;;;;;;;;5030754;28;89006;-74
2022/08/23 23:06:21;;;;;;;11.80;7.65;;;;;;;;;;5032119;28;87786;-74
2022/08/23 23:08:47;;;;;;;13.70;8.93;;;;;;;;;;5029542;28;89002;-74
2022/08/23 23:11:14;;;;;;;15.00;8.13;;;;;;;;;;5031787;28;88528;-75
2022/08/23 23:13:41;;;;;;;14.77;6.93;;;;;;;;;;5030738;28;88547;-74
2022/08/23 23:16:08;;;;;;;12.07;7.53;;;;;;;;;;5032110;28;89097;-74
2022/08/23 23:18:36;;;;;;;17.13;7.72;;;;;;;;;;5034945;27;88366;-75
2022/08/23 23:21:03;;;;;;;17.20;7.80;;;;;;;;;;5032182;28;88882;-75
2022/08/23 23:23:30;;;;;;;16.42;8.32;;;;;;;;;;5028786;28;88287;-75
2022/08/23 23:25:57;;;;;;;14.30;9.00;;;;;;;;;;5027151;28;90235;-75
2022/08/23 23:28:23;;;;;;;12.55;7.72;;;;;;;;;;5031690;28;89467;-74
2022/08/23 23:30:50;;;;;;;12.23;7.55;;;;;;;;;;5029984;28;89532;-74
2022/08/23 23:33:17;;;;;;;14.77;7.05;;;;;;;;;;5031146;28;89981;-74
2022/08/23 23:35:43;;;;;;;14.20;6.90;;;;;;;;;;5028273;28;89197;-75
2022/08/23 23:38:10;;;;;;;12.52;6.28;;;;;;;;;;5027818;28;91337;-74
2022/08/23 23:40:36;;;;;;;11.80;6.75;;;;;;;;;;5030891;28;89126;-74
2022/08/23 23:43:02;;;;;;;9.43;6.47;;;;;;;;;;5029059;28;90117;-74
2022/08/23 23:45:29;;;;;;;11.00;7.53;;;;;;;;;;5030754;28;89905;-75
2022/08/23 23:47:55;;;;;;;12.32;7.80;;;;;;;;;;5030526;28;88967;-75
2022/08/23 23:50:22;;;;;;;18.40;8.52;;;;;;;;;;5030923;28;89851;-75
2022/08/23 23:52:48;;;;;;;15.13;8.95;;;;;;;;;;5026568;28;89232;-75
2022/08/23 23:55:16;;;;;;;11.30;8.35;;;;;;;;;;5010365;28;88871;-75
2022/08/23 23:57:43;;;;;;;11.27;7.78;;;;;;;;;;5022152;28;89703;-75
